createdAt,value
2023-02-13T00:03:47.938Z,9.52
2023-02-13T00:08:50.077Z,9.63
2023-02-13T00:13:52.240Z,9.82
2023-02-13T00:18:54.347Z,8.80
2023-02-13T00:23:56.699Z,11.68
2023-02-13T00:28:59.008Z,10.40
2023-02-13T00:34:01.163Z,12.73
2023-02-13T00:39:03.576Z,9.48
2023-02-13T00:44:06.006Z,12.15
2023-02-13T00:49:08.186Z,12.18
2023-02-13T00:54:10.446Z,12.57
2023-02-13T00:59:12.697Z,13.32
2023-02-13T01:04:15.170Z,12.90
2023-02-13T01:09:17.391Z,11.65
2023-02-13T01:14:19.611Z,10.57
2023-02-13T01:19:24.299Z,10.95
2023-02-13T01:24:30.124Z,10.18
2023-02-13T01:29:35.638Z,12.27
2023-02-13T01:34:37.740Z,13.95
2023-02-13T01:39:40.033Z,10.15
2023-02-13T01:45:23.904Z,10.82
2023-02-13T01:50:34.863Z,9.13
2023-02-13T01:55:47.160Z,9.27
2023-02-13T02:00:50.075Z,9.30
2023-02-13T02:05:54.719Z,11.13
2023-02-13T02:11:05.695Z,10.50
2023-02-13T02:16:08.214Z,9.65
2023-02-13T02:21:10.552Z,11.95
2023-02-13T02:26:54.298Z,10.05
2023-02-13T02:31:59.577Z,16.05
2023-02-13T02:37:41.784Z,11.32
2023-02-13T02:43:11.768Z,10.95
2023-02-13T02:48:49.440Z,11.45
2023-02-13T02:54:45.404Z,10.57
2023-02-13T03:00:09.901Z,13.07
2023-02-13T03:05:45.324Z,10.70
2023-02-13T03:11:05.950Z,11.85
2023-02-13T03:16:34.313Z,11.95
2023-02-13T03:21:58.237Z,12.68
2023-02-13T03:27:43.340Z,12.20
2023-02-13T03:32:56.567Z,11.82
2023-02-13T03:38:05.659Z,10.88
2023-02-13T03:43:17.439Z,11.55
2023-02-13T03:48:58.844Z,9.60
2023-02-13T03:54:07.436Z,8.77
2023-02-13T03:59:18.769Z,10.38
2023-02-13T04:04:30.815Z,9.43
2023-02-13T04:09:37.345Z,9.07
2023-02-13T04:14:57.943Z,10.95
2023-02-13T04:20:00.528Z,13.68
2023-02-13T04:25:02.665Z,13.40
2023-02-13T04:30:06.090Z,9.40
2023-02-13T04:35:09.337Z,12.18
2023-02-13T04:40:11.712Z,16.45
2023-02-13T04:45:13.774Z,11.43
2023-02-13T04:50:15.936Z,11.43
2023-02-13T04:55:18.256Z,11.38
2023-02-13T05:00:25.465Z,10.00
2023-02-13T05:05:27.582Z,8.63
2023-02-13T05:10:29.905Z,9.57
2023-02-13T05:15:32.397Z,12.77
2023-02-13T05:20:34.449Z,11.85
2023-02-13T05:25:38.074Z,9.07
2023-02-13T05:30:40.294Z,11.27
2023-02-13T05:35:42.402Z,10.75
2023-02-13T05:40:44.569Z,16.33
2023-02-13T05:45:46.866Z,12.18
2023-02-13T05:50:49.101Z,16.33
2023-02-13T05:55:52.319Z,11.90
2023-02-13T06:00:58.602Z,18.67
2023-02-13T06:06:01.172Z,16.92
2023-02-13T06:11:03.641Z,16.42
2023-02-13T06:16:06.393Z,13.82
2023-02-13T06:21:09.034Z,13.82
2023-02-13T06:26:11.290Z,15.45
2023-02-13T06:31:13.557Z,12.38
2023-02-13T06:36:15.736Z,10.02
2023-02-13T06:41:17.832Z,9.68
2023-02-13T06:46:19.990Z,11.02
2023-02-13T06:51:22.129Z,12.85
2023-02-13T06:56:26.382Z,9.57
2023-02-13T07:01:28.530Z,9.13
2023-02-13T07:06:30.922Z,8.63
2023-02-13T07:11:33.871Z,10.02
2023-02-13T07:16:36.009Z,12.20
2023-02-13T07:21:38.227Z,10.75
2023-02-13T07:26:40.317Z,9.80
2023-02-13T07:31:42.479Z,11.98
2023-02-13T07:36:44.537Z,11.18
2023-02-13T07:41:46.768Z,11.57
2023-02-13T07:46:51.189Z,9.32
2023-02-13T07:51:53.308Z,9.35
2023-02-13T07:56:55.484Z,11.25
2023-02-13T08:01:57.661Z,10.43
2023-02-13T08:06:59.890Z,18.45
2023-02-13T08:12:02.048Z,15.23
2023-02-13T08:17:04.468Z,14.18
2023-02-13T08:22:06.730Z,14.43
2023-02-13T08:27:12.642Z,17.40
2023-02-13T08:32:15.078Z,22.02
2023-02-13T08:37:17.945Z,15.38
2023-02-13T08:42:20.204Z,20.08
2023-02-13T08:47:22.364Z,18.38
2023-02-13T08:52:24.691Z,17.90
2023-02-13T08:57:27.826Z,17.17
2023-02-13T09:02:29.902Z,20.63
2023-02-13T09:07:31.946Z,22.83
2023-02-13T09:12:34.011Z,30.13
2023-02-13T09:17:36.122Z,40.47
2023-02-13T09:22:38.334Z,39.72
2023-02-13T09:27:40.519Z,50.67
2023-02-13T09:32:42.724Z,49.20
2023-02-13T09:37:45.802Z,46.08
2023-02-13T09:42:49.778Z,39.83
2023-02-13T09:47:52.161Z,34.65
2023-02-13T09:52:58.376Z,35.28
2023-02-13T09:58:04.189Z,30.98
2023-02-13T10:03:42.271Z,21.52
2023-02-13T10:09:09.026Z,19.60
2023-02-13T10:14:32.802Z,16.02
2023-02-13T10:19:43.921Z,15.43
2023-02-13T10:24:57.542Z,13.80
2023-02-13T10:30:17.468Z,14.30
2023-02-13T10:35:29.546Z,13.15
2023-02-13T10:40:36.636Z,12.00
2023-02-13T10:46:04.797Z,11.60
2023-02-13T10:51:36.110Z,11.70
2023-02-13T10:57:13.737Z,12.10
2023-02-13T11:02:15.852Z,10.80
2023-02-13T11:07:21.824Z,10.35
2023-02-13T11:12:26.729Z,11.35
2023-02-13T11:17:32.499Z,12.70
2023-02-13T11:22:42.634Z,9.57
2023-02-13T11:27:46.084Z,9.57
2023-02-13T11:33:28.144Z,7.20
2023-02-13T11:38:30.250Z,8.43
2023-02-13T11:43:53.508Z,10.55
2023-02-13T11:49:00.169Z,6.45
2023-02-13T11:54:03.144Z,7.88
2023-02-13T11:59:05.561Z,7.78
2023-02-13T12:04:16.741Z,7.00
2023-02-13T12:09:18.999Z,6.88
2023-02-13T12:14:24.711Z,6.57
2023-02-13T12:19:49.680Z,6.22
2023-02-13T12:25:18.944Z,7.00
2023-02-13T12:30:36.758Z,5.80
2023-02-13T12:35:53.883Z,5.88
2023-02-13T12:41:03.034Z,5.80
2023-02-13T12:46:09.687Z,6.53
2023-02-13T12:51:14.579Z,5.70
2023-02-13T12:56:26.215Z,5.55
2023-02-13T13:01:31.106Z,6.20
2023-02-13T13:06:58.640Z,6.65
2023-02-13T13:12:22.148Z,7.25
2023-02-13T13:17:47.861Z,5.28
2023-02-13T13:23:18.411Z,5.53
2023-02-13T13:28:32.606Z,5.03
2023-02-13T13:33:36.716Z,4.43
2023-02-13T13:39:15.948Z,5.55
2023-02-13T13:44:17.951Z,4.60
2023-02-13T13:49:22.801Z,5.68
2023-02-13T13:54:32.791Z,4.20
2023-02-13T13:59:37.573Z,4.05
2023-02-13T14:04:43.633Z,4.72
2023-02-13T14:09:46.185Z,4.20
2023-02-13T14:14:48.347Z,4.95
2023-02-13T14:19:53.252Z,4.80
2023-02-13T14:24:58.378Z,5.75
2023-02-13T14:30:01.604Z,6.50
2023-02-13T14:35:23.063Z,5.68
2023-02-13T14:40:43.702Z,6.65
2023-02-13T14:45:56.668Z,5.15
2023-02-13T14:51:00.153Z,6.38
2023-02-13T14:56:11.819Z,6.25
2023-02-13T15:01:18.873Z,6.05
2023-02-13T15:06:31.582Z,6.25
2023-02-13T15:11:44.276Z,5.07
2023-02-13T15:16:51.808Z,5.35
2023-02-13T15:21:59.995Z,5.57
2023-02-13T15:27:07.885Z,4.18
2023-02-13T15:32:26.476Z,5.93
2023-02-13T15:37:30.646Z,5.33
2023-02-13T15:42:32.840Z,2.97
2023-02-13T15:47:36.507Z,3.50
2023-02-13T15:52:39.759Z,3.42
2023-02-13T15:57:41.941Z,3.67
2023-02-13T16:02:47.607Z,2.67
2023-02-13T16:07:58.652Z,2.60
2023-02-13T16:13:06.294Z,2.53
2023-02-13T16:18:19.362Z,3.30
2023-02-13T16:23:21.831Z,3.55
2023-02-13T16:28:26.444Z,2.67
2023-02-13T16:33:37.949Z,2.67
2023-02-13T16:38:42.979Z,3.53
2023-02-13T16:43:56.896Z,3.85
2023-02-13T16:48:59.268Z,3.60
2023-02-13T16:54:14.902Z,3.65
2023-02-13T16:59:47.257Z,3.90
2023-02-13T17:04:53.914Z,3.75
2023-02-13T17:10:17.771Z,4.47
2023-02-13T17:15:27.883Z,3.55
2023-02-13T17:20:32.836Z,3.63
2023-02-13T17:25:37.547Z,4.10
2023-02-13T17:30:40.069Z,4.13
2023-02-13T17:35:42.245Z,3.33
2023-02-13T17:40:45.017Z,3.58
2023-02-13T17:45:48.459Z,4.07
2023-02-13T17:50:51.205Z,3.95
2023-02-13T17:55:53.628Z,7.97
2023-02-13T18:00:56.098Z,7.75
2023-02-13T18:05:58.404Z,5.22
2023-02-13T18:11:00.879Z,3.58
2023-02-13T18:16:09.129Z,4.63
2023-02-13T18:21:12.666Z,6.38
2023-02-13T18:26:15.686Z,5.88
2023-02-13T18:31:18.675Z,5.43
2023-02-13T18:36:20.894Z,7.20
2023-02-13T18:41:23.035Z,4.80
2023-02-13T18:46:25.384Z,6.65
2023-02-13T18:51:27.873Z,4.93
2023-02-13T18:56:30.112Z,5.57
2023-02-13T19:01:32.405Z,6.70
2023-02-13T19:06:34.704Z,6.68
2023-02-13T19:11:38.869Z,7.25
2023-02-13T19:16:41.711Z,5.32
2023-02-13T19:21:43.948Z,7.38
2023-02-13T19:26:47.266Z,7.28
2023-02-13T19:31:49.573Z,5.60
2023-02-13T19:36:51.914Z,5.75
2023-02-13T19:41:54.127Z,7.13
2023-02-13T19:46:57.545Z,7.00
2023-02-13T19:51:59.805Z,8.63
2023-02-13T19:57:05.163Z,6.30
2023-02-13T20:02:09.963Z,7.10
2023-02-13T20:07:12.174Z,7.95
2023-02-13T20:12:14.442Z,7.07
2023-02-13T20:17:16.849Z,7.38
2023-02-13T20:22:19.524Z,7.35
2023-02-13T20:27:21.730Z,8.88
2023-02-13T20:32:24.024Z,7.75
2023-02-13T20:37:26.266Z,9.50
2023-02-13T20:42:28.470Z,9.23
2023-02-13T20:47:30.888Z,10.32
2023-02-13T20:52:34.663Z,10.00
2023-02-13T20:57:37.214Z,10.90
2023-02-13T21:02:39.476Z,6.85
2023-02-13T21:07:41.843Z,8.57
2023-02-13T21:12:44.120Z,8.68
2023-02-13T21:17:46.203Z,8.77
2023-02-13T21:22:48.455Z,8.07
2023-02-13T21:27:50.562Z,8.45
2023-02-13T21:32:52.757Z,8.55
2023-02-13T21:37:54.908Z,8.20
2023-02-13T21:42:57.153Z,7.32
2023-02-13T21:47:59.330Z,8.68
2023-02-13T21:53:01.460Z,8.55
2023-02-13T21:58:03.582Z,9.73
2023-02-13T22:03:05.865Z,7.00
2023-02-13T22:08:11.135Z,8.02
2023-02-13T22:13:13.532Z,7.13
2023-02-13T22:18:15.824Z,6.68
2023-02-13T22:23:17.977Z,7.45
2023-02-13T22:28:20.345Z,7.95
2023-02-13T22:33:22.912Z,7.32
2023-02-13T22:38:25.095Z,7.88
2023-02-13T22:43:27.226Z,8.55
2023-02-13T22:48:29.439Z,8.68
2023-02-13T22:53:31.945Z,7.60
2023-02-13T22:58:34.657Z,9.02
2023-02-13T23:03:36.777Z,8.13
2023-02-13T23:08:39.422Z,8.65
2023-02-13T23:13:44.138Z,7.97
2023-02-13T23:18:59.993Z,9.82
2023-02-13T23:24:02.051Z,9.13
2023-02-13T23:29:04.192Z,7.72
2023-02-13T23:34:06.303Z,11.35
2023-02-13T23:39:08.409Z,8.75
2023-02-13T23:44:10.433Z,7.82
2023-02-13T23:49:12.536Z,9.85
2023-02-13T23:54:19.652Z,9.10
2023-02-13T23:59:23.247Z,8.00
